Time;durP1;ratioP1;P1;durP2;ratioP2;P2;SDS_P1;SDS_P2;PMS_P1;PMS_P2;Temp;Humidity;BMP_temperature;BMP_pressure;BME280_temperature;BME280_humidity;BME280_pressure;Samples;Min_cycle;Max_cycle;Signal;HPM_P1;HPM_P2
2023/05/26 00:00:18;;;;;;;9.85;6.00;;;;;;;8.26;100.00;101896.19;689215;28;1495;-59
2023/05/26 00:00:39;;;;;;;9.68;5.60;;;;;;;8.24;100.00;101896.16;690265;28;979;-59
2023/05/26 00:00:59;;;;;;;10.33;5.80;;;;;;;8.24;100.00;101901.34;688670;28;852;-59
2023/05/26 00:01:20;;;;;;;10.20;5.93;;;;;;;8.23;100.00;101896.97;688231;28;5293;-59
2023/05/26 00:01:46;;;;;;;9.23;5.90;;;;;;;8.22;100.00;101896.94;689901;28;1437;-59
2023/05/26 00:02:06;;;;;;;9.73;5.82;;;;;;;8.24;100.00;101892.63;689170;28;1154;-59
2023/05/26 00:02:27;;;;;;;10.75;6.13;;;;;;;8.26;100.00;101896.19;687410;28;1062;-59
2023/05/26 00:02:48;;;;;;;11.25;6.43;;;;;;;8.26;100.00;101893.56;689760;28;987;-59
2023/05/26 00:03:08;;;;;;;11.83;6.00;;;;;;;8.27;100.00;101895.34;690041;28;1223;-59
2023/05/26 00:03:29;;;;;;;11.13;5.93;;;;;;;8.26;100.00;101894.44;689140;28;1704;-59
2023/05/26 00:03:50;;;;;;;10.32;5.82;;;;;;;8.29;100.00;101901.47;690237;28;939;-59
2023/05/26 00:04:12;;;;;;;11.70;6.20;;;;;;;8.33;100.00;101900.69;689814;28;4343;-58
2023/05/26 00:04:32;;;;;;;10.63;5.95;;;;;;;8.29;100.00;101894.53;690369;28;995;-59
2023/05/26 00:04:52;;;;;;;10.82;6.20;;;;;;;8.28;100.00;101897.09;689804;28;1231;-59
2023/05/26 00:05:16;;;;;;;12.20;6.30;;;;;;;8.28;100.00;101902.28;688708;28;1693;-59
2023/05/26 00:05:40;;;;;;;11.07;5.90;;;;;;;8.32;100.00;101898.91;690518;28;975;-59
2023/05/26 00:06:01;;;;;;;10.73;5.97;;;;;;;8.38;100.00;101899.09;690045;28;830;-59
2023/05/26 00:06:21;;;;;;;10.27;5.97;;;;;;;8.40;100.00;101897.38;688958;28;1535;-59
2023/05/26 00:06:41;;;;;;;8.83;5.90;;;;;;;8.40;100.00;101897.38;690598;28;781;-58
2023/05/26 00:07:02;;;;;;;10.55;6.18;;;;;;;8.38;100.00;101893.88;689730;28;801;-59
2023/05/26 00:07:22;;;;;;;13.47;6.90;;;;;;;8.36;100.00;101890.34;688580;28;4301;-59
2023/05/26 00:07:43;;;;;;;13.00;6.83;;;;;;;8.39;100.00;101899.97;690720;28;908;-59
2023/05/26 00:08:03;;;;;;;9.82;6.18;;;;;;;8.41;100.00;101898.28;689934;28;1236;-59
2023/05/26 00:08:24;;;;;;;9.07;5.60;;;;;;;8.43;100.00;101897.47;689417;28;1540;-59
2023/05/26 00:08:44;;;;;;;10.53;5.27;;;;;;;8.43;100.00;101894.88;690515;28;908;-59
2023/05/26 00:09:04;;;;;;;12.63;6.05;;;;;;;8.42;100.00;101895.72;689932;28;936;-59
2023/05/26 00:09:25;;;;;;;11.33;6.07;;;;;;;8.42;100.00;101894.81;686311;28;1568;-59
2023/05/26 00:09:45;;;;;;;11.20;5.70;;;;;;;8.42;100.00;101893.09;684820;28;1296;-59
2023/05/26 00:10:10;;;;;;;14.38;6.30;;;;;;;8.40;100.00;101892.16;681264;28;4382;-59
2023/05/26 00:10:30;;;;;;;10.63;6.20;;;;;;;8.40;100.00;101897.38;680690;28;2083;-59
2023/05/26 00:10:51;;;;;;;11.20;6.57;;;;;;;8.41;100.00;101895.69;682271;29;869;-59
2023/05/26 00:11:11;;;;;;;13.43;6.73;;;;;;;8.41;100.00;101893.06;680338;28;1346;-59
2023/05/26 00:11:31;;;;;;;12.38;6.22;;;;;;;8.41;100.00;101898.28;683842;28;1588;-59
2023/05/26 00:11:52;;;;;;;12.73;6.60;;;;;;;8.41;100.00;101893.94;687737;28;869;-59
2023/05/26 00:12:12;;;;;;;11.48;6.72;;;;;;;8.42;100.00;101895.72;686222;28;1599;-59
2023/05/26 00:12:33;;;;;;;11.60;6.40;;;;;;;8.41;100.00;101900.88;686716;28;1914;-59
2023/05/26 00:12:53;;;;;;;11.60;6.00;;;;;;;8.41;100.00;101893.06;687291;28;1401;-59
2023/05/26 00:13:14;;;;;;;12.67;6.47;;;;;;;8.42;100.00;101897.41;688053;28;4354;-59
2023/05/26 00:13:34;;;;;;;12.27;6.28;;;;;;;8.43;100.00;101896.59;692632;28;860;-59
2023/05/26 00:13:56;;;;;;;12.23;6.07;;;;;;;8.42;100.00;101892.19;690403;28;901;-59
2023/05/26 00:14:17;;;;;;;10.73;5.53;;;;;;;8.43;100.00;101897.47;687109;28;1571;-59
2023/05/26 00:14:37;;;;;;;13.98;6.65;;;;;;;8.43;100.00;101896.59;690130;28;1331;-58
2023/05/26 00:14:58;;;;;;;12.93;6.17;;;;;;;8.40;100.00;101897.38;687191;28;1067;-59
2023/05/26 00:15:18;;;;;;;12.45;5.95;;;;;;;8.38;100.00;101899.09;686258;28;1491;-59
2023/05/26 00:15:38;;;;;;;12.20;6.10;;;;;;;8.40;100.00;101901.72;687581;28;841;-59
2023/05/26 00:16:00;;;;;;;12.87;6.10;;;;;;;8.41;100.00;101899.16;690320;28;939;-59
2023/05/26 00:16:20;;;;;;;12.90;5.88;;;;;;;8.41;100.00;101899.16;685475;28;4545;-59
2023/05/26 00:16:44;;;;;;;11.83;5.90;;;;;;;8.42;100.00;101893.09;688728;28;992;-59
2023/05/26 00:17:06;;;;;;;12.55;6.30;;;;;;;8.43;100.00;101896.59;692445;28;1014;-59
2023/05/26 00:17:27;;;;;;;14.20;6.50;;;;;;;8.45;100.00;101890.59;690675;28;1540;-59
2023/05/26 00:17:50;;;;;;;13.73;5.88;;;;;;;8.45;100.00;101895.81;691233;28;1381;-59
2023/05/26 00:18:13;;;;;;;11.25;5.97;;;;;;;8.44;100.00;101894.00;691611;28;968;-59
2023/05/26 00:18:33;;;;;;;12.77;6.15;;;;;;;8.45;100.00;101901.03;689663;28;1142;-59
2023/05/26 00:18:53;;;;;;;11.00;6.27;;;;;;;8.43;100.00;101886.16;688731;28;793;-59
2023/05/26 00:19:17;;;;;;;13.63;5.90;;;;;;;8.41;100.00;101899.16;685457;28;4531;-59
2023/05/26 00:19:38;;;;;;;14.13;5.80;;;;;;;8.39;100.00;101900.84;685563;28;3453;-60
2023/05/26 00:20:00;;;;;;;11.35;5.80;;;;;;;8.39;100.00;101900.84;685528;28;973;-59
2023/05/26 00:20:23;;;;;;;10.45;5.78;;;;;;;8.43;100.00;101907.00;685323;28;1468;-59
2023/05/26 00:20:43;;;;;;;10.77;5.82;;;;;;;8.44;100.00;101899.22;687015;28;896;-59
2023/05/26 00:21:03;;;;;;;11.37;6.20;;;;;;;8.43;100.00;101894.88;686940;28;1532;-59
2023/05/26 00:21:24;;;;;;;11.27;5.93;;;;;;;8.44;100.00;101898.34;685850;28;1512;-59
2023/05/26 00:21:45;;;;;;;12.07;5.60;;;;;;;8.42;100.00;101900.91;685927;28;988;-59
2023/05/26 00:22:05;;;;;;;13.63;5.80;;;;;;;8.42;100.00;101895.72;686581;28;4390;-58
2023/05/26 00:22:26;;;;;;;11.47;5.80;;;;;;;8.42;100.00;101905.22;685089;28;1453;-58
2023/05/26 00:22:47;;;;;;;11.45;5.88;;;;;;;8.44;100.00;101895.75;687319;28;1002;-59
2023/05/26 00:23:07;;;;;;;10.67;5.90;;;;;;;8.47;100.00;101898.44;687983;28;931;-59
2023/05/26 00:23:27;;;;;;;11.30;5.68;;;;;;;8.46;100.00;101894.97;685856;28;1494;-59
2023/05/26 00:23:48;;;;;;;10.00;5.83;;;;;;;8.45;100.00;101893.19;687157;28;1253;-60
2023/05/26 00:24:08;;;;;;;11.88;6.00;;;;;;;8.47;100.00;101896.75;687511;28;1405;-59
2023/05/26 00:24:29;;;;;;;13.70;6.17;;;;;;;8.51;100.00;101900.28;686617;28;1538;-59
2023/05/26 00:24:49;;;;;;;14.53;5.97;;;;;;;8.52;100.00;101904.66;687466;28;783;-58
2023/05/26 00:25:10;;;;;;;12.13;5.77;;;;;;;8.52;100.00;101899.44;686803;28;4303;-58
2023/05/26 00:25:30;;;;;;;14.90;6.30;;;;;;;8.49;100.00;101897.66;684782;28;1542;-59
2023/05/26 00:25:51;;;;;;;14.83;6.40;;;;;;;8.48;100.00;101895.00;687309;28;1200;-59
2023/05/26 00:26:11;;;;;;;10.85;6.20;;;;;;;8.50;100.00;101901.13;686376;28;885;-60
2023/05/26 00:26:32;;;;;;;11.13;5.57;;;;;;;8.50;100.00;101898.50;686780;28;1559;-59
2023/05/26 00:26:53;;;;;;;13.35;5.80;;;;;;;8.58;100.00;101903.91;685090;28;1538;-59
2023/05/26 00:27:14;;;;;;;12.23;5.90;;;;;;;8.59;100.00;101897.88;683361;28;1482;-59
2023/05/26 00:27:34;;;;;;;12.38;5.97;;;;;;;8.59;100.00;101897.88;685016;28;1620;-59
2023/05/26 00:27:55;;;;;;;11.75;5.80;;;;;;;8.60;100.00;101899.59;680717;28;1462;-59
2023/05/26 00:28:16;;;;;;;14.27;6.10;;;;;;;8.56;100.00;101898.66;683057;28;4346;-59
2023/05/26 00:28:36;;;;;;;15.15;6.18;;;;;;;8.54;100.00;101902.09;685152;28;1303;-59
2023/05/26 00:28:56;;;;;;;14.97;5.67;;;;;;;8.55;100.00;101903.84;687904;28;1157;-59
2023/05/26 00:29:17;;;;;;;11.73;5.43;;;;;;;8.58;100.00;101903.91;682623;28;1483;-59
2023/05/26 00:29:38;;;;;;;11.95;5.70;;;;;;;8.59;100.00;101898.75;682585;29;1543;-59
2023/05/26 00:29:58;;;;;;;11.33;5.70;;;;;;;8.59;100.00;101900.47;682427;29;873;-60
2023/05/26 00:30:19;;;;;;;13.02;5.55;;;;;;;8.59;100.00;101901.34;680465;28;1565;-59
2023/05/26 00:30:39;;;;;;;11.27;5.60;;;;;;;8.57;100.00;101899.53;682388;29;1383;-59
2023/05/26 00:30:59;;;;;;;13.73;5.75;;;;;;;8.57;100.00;101900.44;682817;28;889;-59
2023/05/26 00:31:20;;;;;;;14.40;5.77;;;;;;;8.60;100.00;101897.91;683399;28;4362;-59
2023/05/26 00:31:40;;;;;;;12.20;5.40;;;;;;;8.59;100.00;101908.28;688075;28;786;-59
2023/05/26 00:32:00;;;;;;;11.00;5.32;;;;;;;8.58;100.00;101906.53;686387;28;1060;-59
2023/05/26 00:32:21;;;;;;;14.60;5.77;;;;;;;8.57;100.00;101904.75;682847;28;1506;-60
2023/05/26 00:32:41;;;;;;;13.88;5.68;;;;;;;8.56;100.00;101900.41;685401;28;869;-59
2023/05/26 00:33:04;;;;;;;13.90;5.88;;;;;;;8.56;100.00;101897.81;685396;28;822;-59
2023/05/26 00:33:24;;;;;;;13.15;5.65;;;;;;;8.57;100.00;101904.75;679712;29;1308;-59
2023/05/26 00:33:44;;;;;;;12.30;5.60;;;;;;;8.51;100.00;101902.88;682520;29;1182;-59
2023/05/26 00:34:05;;;;;;;12.32;5.88;;;;;;;8.49;100.00;101907.19;682420;28;4560;-59
2023/05/26 00:34:25;;;;;;;13.07;5.87;;;;;;;8.45;100.00;101901.03;683902;28;1558;-59
2023/05/26 00:34:46;;;;;;;14.87;6.23;;;;;;;8.49;100.00;101908.06;687967;28;979;-59
2023/05/26 00:35:06;;;;;;;14.77;6.73;;;;;;;8.50;100.00;101908.94;686989;28;825;-60
2023/05/26 00:35:27;;;;;;;12.52;6.10;;;;;;;8.52;100.00;101897.72;688436;28;1470;-59
2023/05/26 00:35:47;;;;;;;12.17;5.57;;;;;;;8.51;100.00;101906.41;688277;28;912;-59
2023/05/26 00:36:08;;;;;;;12.07;5.65;;;;;;;8.50;100.00;101907.22;688119;28;762;-59
2023/05/26 00:36:28;;;;;;;13.07;5.30;;;;;;;8.51;100.00;101905.50;685645;28;1480;-59
2023/05/26 00:36:48;;;;;;;13.18;5.60;;;;;;;8.50;100.00;101903.72;687567;28;881;-59
2023/05/26 00:37:09;;;;;;;13.33;5.40;;;;;;;8.55;100.00;101903.84;686735;28;4416;-59
2023/05/26 00:37:29;;;;;;;13.67;5.47;;;;;;;8.56;100.00;101908.22;685930;28;1482;-60
2023/05/26 00:37:50;;;;;;;14.93;6.35;;;;;;;8.52;100.00;101913.34;688228;28;786;-59
2023/05/26 00:38:10;;;;;;;13.60;5.95;;;;;;;8.52;100.00;101905.53;687394;28;1342;-59
2023/05/26 00:38:31;;;;;;;11.67;5.40;;;;;;;8.47;100.00;101907.16;685529;28;2578;-59
2023/05/26 00:38:51;;;;;;;11.90;5.80;;;;;;;8.54;100.00;101907.28;687046;28;1401;-60
2023/05/26 00:39:12;;;;;;;12.20;5.55;;;;;;;8.57;100.00;101909.97;686887;28;1267;-59
2023/05/26 00:39:33;;;;;;;12.97;5.97;;;;;;;8.56;100.00;101913.44;687534;28;951;-58
2023/05/26 00:39:53;;;;;;;14.85;6.00;;;;;;;8.55;100.00;101909.94;688047;28;1114;-59
2023/05/26 00:40:13;;;;;;;14.73;5.97;;;;;;;8.55;100.00;101912.53;683612;28;4458;-59
2023/05/26 00:40:34;;;;;;;12.57;5.53;;;;;;;8.60;100.00;101912.63;684731;28;1168;-59
2023/05/26 00:40:54;;;;;;;13.33;5.90;;;;;;;8.62;100.00;101906.63;685169;28;1239;-59
2023/05/26 00:41:15;;;;;;;13.23;5.72;;;;;;;8.63;100.00;101907.53;684117;28;1564;-59
2023/05/26 00:41:36;;;;;;;13.40;5.53;;;;;;;8.61;100.00;101909.19;685324;28;781;-59
2023/05/26 00:41:57;;;;;;;12.33;5.43;;;;;;;8.59;100.00;101914.38;685283;28;1346;-59
2023/05/26 00:42:17;;;;;;;13.88;5.38;;;;;;;8.66;100.00;101910.19;682954;28;5366;-59
2023/05/26 00:42:38;;;;;;;12.13;5.45;;;;;;;8.68;100.00;101911.09;682366;29;1346;-59
2023/05/26 00:42:59;;;;;;;12.60;5.20;;;;;;;8.71;100.00;101907.69;679290;29;1625;-59
2023/05/26 00:43:19;;;;;;;13.70;5.53;;;;;;;8.74;100.00;101908.66;680347;28;4411;-59
2023/05/26 00:43:39;;;;;;;15.05;5.50;;;;;;;8.72;100.00;101907.72;682448;29;1020;-59
2023/05/26 00:44:01;;;;;;;13.17;5.47;;;;;;;8.74;100.00;101913.84;682648;28;1190;-59
2023/05/26 00:44:24;;;;;;;12.70;5.80;;;;;;;8.69;100.00;101908.56;684696;28;1522;-59
2023/05/26 00:44:44;;;;;;;11.25;5.60;;;;;;;8.71;100.00;101908.59;687344;28;866;-59
2023/05/26 00:45:05;;;;;;;10.83;5.90;;;;;;;8.68;100.00;101911.09;687512;28;1600;-59
2023/05/26 00:45:25;;;;;;;12.15;5.82;;;;;;;8.65;100.00;101908.41;685833;28;1508;-59
2023/05/26 00:45:46;;;;;;;14.70;5.37;;;;;;;8.72;100.00;101910.31;687661;28;935;-59
2023/05/26 00:46:06;;;;;;;11.98;5.10;;;;;;;8.71;100.00;101911.19;687160;28;4286;-59
2023/05/26 00:46:28;;;;;;;13.43;5.50;;;;;;;8.72;100.00;101907.72;689541;28;1447;-59
2023/05/26 00:46:49;;;;;;;15.95;5.65;;;;;;;8.71;100.00;101907.69;688887;28;1026;-59
2023/05/26 00:47:10;;;;;;;14.43;5.25;;;;;;;8.67;100.00;101909.34;687507;28;1340;-59
2023/05/26 00:47:31;;;;;;;14.17;5.57;;;;;;;8.66;100.00;101910.19;683314;28;1600;-59
2023/05/26 00:47:51;;;;;;;16.13;5.72;;;;;;;8.66;100.00;101905.84;685186;28;917;-60
2023/05/26 00:48:11;;;;;;;15.00;6.00;;;;;;;8.66;100.00;101907.59;685087;28;972;-59
2023/05/26 00:48:32;;;;;;;13.00;5.43;;;;;;;8.65;100.00;101908.41;684290;28;1528;-60
2023/05/26 00:48:52;;;;;;;14.50;5.53;;;;;;;8.66;100.00;101907.59;685170;28;824;-59
2023/05/26 00:49:13;;;;;;;16.23;5.78;;;;;;;8.68;100.00;101916.31;686379;28;4521;-60
2023/05/26 00:49:33;;;;;;;20.40;6.37;;;;;;;8.73;100.00;101908.63;693553;28;1229;-59
2023/05/26 00:49:54;;;;;;;17.87;6.33;;;;;;;8.74;100.00;101908.66;693403;28;880;-59
2023/05/26 00:50:16;;;;;;;13.75;5.53;;;;;;;8.73;100.00;101906.88;691659;28;1499;-59
2023/05/26 00:50:36;;;;;;;11.98;5.03;;;;;;;8.71;100.00;101903.38;690187;28;1318;-59
2023/05/26 00:50:57;;;;;;;13.10;5.28;;;;;;;8.75;100.00;101910.41;689206;28;1448;-59
2023/05/26 00:51:18;;;;;;;14.70;5.60;;;;;;;8.76;100.00;101908.69;688561;28;1473;-60
2023/05/26 00:51:39;;;;;;;15.23;5.50;;;;;;;8.83;100.00;101903.66;690547;28;960;-59
2023/05/26 00:51:59;;;;;;;13.40;5.15;;;;;;;8.84;100.00;101913.22;690869;28;881;-59
2023/05/26 00:52:21;;;;;;;11.97;5.10;;;;;;;8.75;100.00;101910.41;688129;28;4350;-59
2023/05/26 00:52:43;;;;;;;12.35;4.70;;;;;;;8.74;100.00;101905.16;690482;28;1973;-59
2023/05/26 00:53:04;;;;;;;11.15;4.82;;;;;;;8.73;100.00;101908.63;690031;28;955;-59
2023/05/26 00:53:24;;;;;;;14.68;5.75;;;;;;;8.72;100.00;101910.31;685902;28;1457;-59
2023/05/26 00:53:45;;;;;;;15.10;5.78;;;;;;;8.71;100.00;101903.38;685123;28;923;-59
2023/05/26 00:54:07;;;;;;;14.30;5.17;;;;;;;8.70;100.00;101904.19;683270;28;1291;-59
2023/05/26 00:54:27;;;;;;;15.35;5.05;;;;;;;8.71;100.00;101905.97;682894;28;1471;-59
2023/05/26 00:54:48;;;;;;;15.00;5.00;;;;;;;8.83;100.00;101907.97;683981;28;849;-59
2023/05/26 00:55:10;;;;;;;15.55;5.05;;;;;;;8.82;100.00;101908.78;678072;29;4523;-59
2023/05/26 00:55:32;;;;;;;13.66;4.98;;;;;;;8.80;100.00;101906.16;678119;29;1649;-59
2023/05/26 00:55:54;;;;;;;12.60;5.20;;;;;;;8.92;100.00;101902.97;679511;29;1399;-59
2023/05/26 00:56:18;;;;;;;14.57;4.90;;;;;;;8.95;100.00;101903.03;680812;28;1486;-59
2023/05/26 00:56:39;;;;;;;12.38;4.60;;;;;;;8.90;100.00;101894.19;682358;29;1271;-59
2023/05/26 00:57:00;;;;;;;12.98;4.53;;;;;;;8.92;100.00;101907.31;683886;28;936;-59
2023/05/26 00:57:21;;;;;;;14.40;4.70;;;;;;;8.90;100.00;101899.41;682588;28;1526;-59
2023/05/26 00:57:43;;;;;;;14.10;4.80;;;;;;;8.91;100.00;101901.19;685801;28;1343;-59
2023/05/26 00:58:05;;;;;;;16.75;5.20;;;;;;;8.91;100.00;101900.31;684699;28;4443;-58
2023/05/26 00:58:26;;;;;;;15.00;4.65;;;;;;;8.96;100.00;101906.53;683927;28;1451;-59
2023/05/26 00:58:46;;;;;;;14.18;4.38;;;;;;;9.03;100.00;101901.47;682337;29;1303;-59
2023/05/26 00:59:10;;;;;;;18.65;5.32;;;;;;;9.01;100.00;101902.25;683161;28;921;-59
2023/05/26 00:59:31;;;;;;;14.32;5.20;;;;;;;9.01;100.00;101907.47;679616;28;1521;-59
2023/05/26 00:59:51;;;;;;;13.45;5.00;;;;;;;8.99;100.00;101894.41;683607;28;1502;-59
2023/05/26 01:00:13;;;;;;;13.85;5.18;;;;;;;8.99;100.00;101902.25;682548;29;1232;-58
2023/05/26 01:00:36;;;;;;;13.70;5.45;;;;;;;8.97;100.00;101896.13;677664;29;877;-59
2023/05/26 01:00:57;;;;;;;16.47;5.40;;;;;;;8.95;100.00;101903.03;677647;29;1545;-58
2023/05/26 01:01:17;;;;;;;15.80;4.63;;;;;;;9.05;100.00;101898.88;680085;28;4463;-58
2023/05/26 01:01:38;;;;;;;14.65;4.60;;;;;;;9.08;100.00;101898.94;684347;28;928;-59
2023/05/26 01:02:03;;;;;;;14.60;4.80;;;;;;;9.06;100.00;101902.38;686086;28;1396;-59
2023/05/26 01:02:25;;;;;;;12.32;4.55;;;;;;;9.03;100.00;101904.06;688857;28;1682;-58
2023/05/26 01:02:48;;;;;;;13.60;5.00;;;;;;;9.00;100.00;101906.63;689864;28;1297;-58
2023/05/26 01:03:11;;;;;;;17.27;4.78;;;;;;;8.96;100.00;101899.56;690853;28;1029;-59
2023/05/26 01:03:32;;;;;;;14.40;4.70;;;;;;;9.04;100.00;101897.09;688685;28;1515;-58
2023/05/26 01:03:52;;;;;;;15.40;4.90;;;;;;;8.97;100.00;101895.22;687697;28;1098;-59
2023/05/26 01:04:13;;;;;;;16.45;5.60;;;;;;;9.02;100.00;101906.66;687267;28;4491;-58
2023/05/26 01:04:34;;;;;;;14.20;4.90;;;;;;;8.97;100.00;101895.22;687461;28;1654;-58
2023/05/26 01:04:54;;;;;;;12.90;4.70;;;;;;;9.00;100.00;101896.19;687458;28;1155;-58
2023/05/26 01:05:15;;;;;;;15.73;5.03;;;;;;;9.01;100.00;101902.25;686734;28;1470;-59
2023/05/26 01:05:35;;;;;;;13.50;4.20;;;;;;;8.97;100.00;101896.13;687936;28;1184;-59
2023/05/26 01:05:56;;;;;;;13.90;4.40;;;;;;;8.92;100.00;101896.88;690737;28;1551;-59
2023/05/26 01:06:17;;;;;;;11.70;4.47;;;;;;;8.96;100.00;101896.09;689394;28;1644;-58
2023/05/26 01:06:38;;;;;;;14.02;4.55;;;;;;;8.97;100.00;101897.84;687843;28;2172;-59
2023/05/26 01:06:58;;;;;;;12.85;4.20;;;;;;;8.97;100.00;101901.34;687628;28;1429;-58
2023/05/26 01:07:22;;;;;;;15.50;4.70;;;;;;;9.00;100.00;101901.41;686045;28;4351;-59
2023/05/26 01:07:42;;;;;;;15.32;4.90;;;;;;;9.01;100.00;101902.25;684978;28;1272;-59
2023/05/26 01:08:04;;;;;;;15.52;5.00;;;;;;;9.03;100.00;101895.38;685210;28;1508;-58
2023/05/26 01:08:25;;;;;;;15.27;4.90;;;;;;;8.99;100.00;101896.16;684970;28;1454;-59
2023/05/26 01:08:45;;;;;;;13.70;5.40;;;;;;;9.02;100.00;101893.59;688075;28;912;-59
2023/05/26 01:09:05;;;;;;;13.00;4.57;;;;;;;9.01;100.00;101891.84;688380;28;1393;-60
2023/05/26 01:09:27;;;;;;;15.82;4.70;;;;;;;9.01;100.00;101903.16;690042;28;1427;-59
2023/05/26 01:09:50;;;;;;;14.20;4.40;;;;;;;9.04;100.00;101891.88;692384;28;880;-59
2023/05/26 01:10:11;;;;;;;13.77;4.45;;;;;;;9.03;100.00;101892.75;688624;28;4362;-58
2023/05/26 01:10:31;;;;;;;14.17;4.17;;;;;;;8.98;100.00;101895.25;689720;28;1630;-59
2023/05/26 01:10:54;;;;;;;11.27;4.30;;;;;;;8.99;100.00;101893.53;690777;28;1615;-59
2023/05/26 01:11:22;;;;;;;15.05;4.88;;;;;;;8.98;100.00;101902.22;688760;28;1564;-59
2023/05/26 01:12:01;;;;;;;16.42;4.65;;;;;;;9.11;100.00;101893.81;690193;28;1009;-59
2023/05/26 01:12:45;;;;;;;15.07;4.32;;;;;;;9.20;100.00;101895.72;686146;28;1519;-59
2023/05/26 01:13:13;;;;;;;15.75;4.47;;;;;;;9.17;100.00;101898.28;687472;28;4438;-58
2023/05/26 01:13:51;;;;;;;13.25;5.38;;;;;;;9.22;100.00;101896.66;686608;28;1465;-59
2023/05/26 01:14:17;;;;;;;13.52;5.22;;;;;;;9.12;100.00;101900.75;687703;28;873;-59
2023/05/26 01:14:52;;;;;;;14.43;4.65;;;;;;;9.13;100.00;101907.75;690743;28;822;-59
2023/05/26 01:15:19;;;;;;;14.98;4.47;;;;;;;9.09;100.00;101903.31;687639;28;980;-60
2023/05/26 01:15:46;;;;;;;14.68;4.85;;;;;;;9.03;100.00;101904.06;685485;28;945;-59
2023/05/26 01:16:12;;;;;;;16.13;4.50;;;;;;;9.03;100.00;101895.38;681199;29;4606;-59
2023/05/26 01:16:39;;;;;;;11.52;3.95;;;;;;;8.97;100.00;101897.84;678041;29;1550;-60
2023/05/26 01:17:07;;;;;;;13.73;4.80;;;;;;;9.06;100.00;101900.66;680678;29;881;-59
2023/05/26 01:17:36;;;;;;;15.25;4.63;;;;;;;9.01;100.00;101895.34;681626;28;1553;-60
2023/05/26 01:18:16;;;;;;;15.32;4.53;;;;;;;9.06;100.00;101892.81;685641;28;1461;-60
2023/05/26 01:19:04;;;;;;;16.92;4.20;;;;;;;8.98;100.00;101902.22;685936;28;1003;-59
2023/05/26 01:19:27;;;;;;;15.43;4.50;;;;;;;8.98;100.00;101897.00;686321;28;5033;-59
2023/05/26 01:20:09;;;;;;;15.38;5.10;;;;;;;9.02;100.00;101898.81;687438;28;1342;-59
2023/05/26 01:20:38;;;;;;;16.73;4.57;;;;;;;8.96;100.00;101902.19;682542;28;1240;-60
2023/05/26 01:21:08;;;;;;;15.73;4.43;;;;;;;8.94;100.00;101906.47;680731;29;2345;-58
2023/05/26 01:21:33;;;;;;;14.27;4.85;;;;;;;8.96;100.00;101902.19;681255;28;2198;-59
2023/05/26 01:22:10;;;;;;;11.45;4.53;;;;;;;8.98;100.00;101900.47;683317;28;1403;-59
2023/05/26 01:22:45;;;;;;;13.55;4.22;;;;;;;8.94;100.00;101903.00;685691;28;5085;-59
2023/05/26 01:23:20;;;;;;;16.80;4.40;;;;;;;8.92;100.00;101900.34;690334;28;1198;-59
2023/05/26 01:23:40;;;;;;;16.08;4.80;;;;;;;8.91;100.00;101903.78;686111;28;958;-59
2023/05/26 01:24:14;;;;;;;14.60;4.73;;;;;;;8.88;100.00;101903.75;688007;28;859;-59
2023/05/26 01:24:45;;;;;;;17.42;4.38;;;;;;;8.89;100.00;101902.00;687107;28;1507;-58
2023/05/26 01:25:23;;;;;;;13.32;4.13;;;;;;;8.90;100.00;101903.75;685795;28;4448;-58
2023/05/26 01:26:04;;;;;;;16.80;4.43;;;;;;;8.85;100.00;101901.94;688019;28;1651;-59
2023/05/26 01:26:50;;;;;;;13.13;3.97;;;;;;;8.99;100.00;101904.84;683366;28;1534;-59
2023/05/26 01:27:31;;;;;;;20.52;4.50;;;;;;;8.92;100.00;101899.47;681936;29;944;-59
2023/05/26 01:28:10;;;;;;;12.60;4.30;;;;;;;8.86;100.00;101903.72;682161;29;1371;-59
2023/05/26 01:28:32;;;;;;;14.90;4.65;;;;;;;8.85;100.00;101895.84;682823;28;4843;-58
2023/05/26 01:29:00;;;;;;;15.30;4.38;;;;;;;8.91;100.00;101895.97;684282;28;1007;-59
2023/05/26 01:29:24;;;;;;;12.25;5.18;;;;;;;8.94;100.00;101900.38;685341;28;1478;-59
2023/05/26 01:29:45;;;;;;;12.38;4.38;;;;;;;8.97;100.00;101905.66;686396;28;2064;-59
2023/05/26 01:30:07;;;;;;;15.15;4.20;;;;;;;8.93;100.00;101898.59;684735;28;1458;-59
2023/05/26 01:30:29;;;;;;;15.65;4.40;;;;;;;8.90;100.00;101896.81;682940;28;1576;-59
2023/05/26 01:30:50;;;;;;;14.75;4.07;;;;;;;8.91;100.00;101895.97;685206;28;964;-59
2023/05/26 01:31:11;;;;;;;13.43;3.95;;;;;;;8.95;100.00;101903.03;681536;28;4396;-59
2023/05/26 01:31:33;;;;;;;15.93;4.60;;;;;;;8.96;100.00;101896.97;679373;29;1243;-59
2023/05/26 01:31:53;;;;;;;14.18;4.35;;;;;;;8.97;100.00;101900.44;683235;28;1052;-59
2023/05/26 01:32:15;;;;;;;13.10;4.18;;;;;;;9.05;100.00;101909.31;682223;29;854;-59
2023/05/26 01:32:35;;;;;;;12.05;3.90;;;;;;;8.97;100.00;101895.22;681997;29;1965;-59
2023/05/26 01:32:56;;;;;;;13.27;3.97;;;;;;;9.02;100.00;101901.44;682838;28;1482;-59
2023/05/26 01:33:16;;;;;;;11.50;3.97;;;;;;;9.04;100.00;101897.09;684123;28;1218;-59
2023/05/26 01:33:37;;;;;;;12.82;4.53;;;;;;;9.00;100.00;101901.41;687936;28;972;-59
2023/05/26 01:33:58;;;;;;;14.70;4.40;;;;;;;9.05;100.00;101908.44;688076;28;856;-59
2023/05/26 01:34:19;;;;;;;12.82;3.97;;;;;;;9.06;100.00;101905.00;684744;28;4456;-58
2023/05/26 01:34:39;;;;;;;13.33;3.87;;;;;;;8.98;100.00;101899.59;687137;28;2546;-59
2023/05/26 01:34:59;;;;;;;14.47;4.17;;;;;;;8.95;100.00;101894.31;684602;28;1173;-59
2023/05/26 01:35:20;;;;;;;16.20;4.77;;;;;;;8.93;100.00;101907.34;685248;28;1441;-59
2023/05/26 01:35:41;;;;;;;15.52;4.45;;;;;;;8.96;100.00;101898.69;687885;28;1204;-59
2023/05/26 01:36:02;;;;;;;11.73;4.00;;;;;;;8.95;100.00;101905.63;687730;28;1441;-59
2023/05/26 01:36:23;;;;;;;16.02;4.18;;;;;;;8.92;100.00;101900.34;681308;28;1497;-59
2023/05/26 01:36:44;;;;;;;14.47;3.80;;;;;;;8.89;100.00;101904.59;682183;28;852;-59
2023/05/26 01:37:05;;;;;;;13.88;4.20;;;;;;;8.93;100.00;101898.59;681950;28;4881;-58
2023/05/26 01:37:25;;;;;;;12.35;3.70;;;;;;;8.93;100.00;101896.00;680887;28;1531;-59
2023/05/26 01:37:46;;;;;;;13.33;3.87;;;;;;;8.92;100.00;101902.97;682111;29;1541;-59
2023/05/26 01:38:07;;;;;;;13.48;3.65;;;;;;;8.89;100.00;101902.00;682872;28;880;-59
2023/05/26 01:38:28;;;;;;;17.30;4.47;;;;;;;8.90;100.00;101903.75;686315;28;1552;-59
2023/05/26 01:38:49;;;;;;;12.38;3.83;;;;;;;9.00;100.00;101897.91;687431;28;1239;-59
2023/05/26 01:39:10;;;;;;;18.07;4.13;;;;;;;9.01;100.00;101900.56;686867;28;1369;-59
2023/05/26 01:39:31;;;;;;;17.95;4.32;;;;;;;9.06;100.00;101898.03;686624;28;1466;-59
2023/05/26 01:39:51;;;;;;;13.63;3.95;;;;;;;9.01;100.00;101899.66;685269;28;1654;-59
2023/05/26 01:40:13;;;;;;;12.50;3.63;;;;;;;8.99;100.00;101903.97;684786;28;4269;-59
2023/05/26 01:40:35;;;;;;;12.30;3.85;;;;;;;9.04;100.00;101907.53;681137;28;1561;-59
2023/05/26 01:41:23;;;;;;;12.98;3.75;;;;;;;8.99;100.00;101902.25;684381;28;1414;-59
2023/05/26 01:41:48;;;;;;;12.63;3.65;;;;;;;9.01;100.00;101902.25;682646;28;917;-58
2023/05/26 01:42:26;;;;;;;13.20;3.47;;;;;;;9.01;100.00;101902.25;682228;28;5272;-59
2023/05/26 01:43:08;;;;;;;15.18;4.53;;;;;;;9.05;100.00;101906.69;681049;29;958;-59
2023/05/26 01:43:55;;;;;;;15.48;3.42;;;;;;;8.97;100.00;101900.44;680060;28;5129;-59
2023/05/26 01:44:48;;;;;;;12.68;3.80;;;;;;;9.01;100.00;101904.88;683704;28;1680;-60
2023/05/26 01:45:22;;;;;;;16.48;4.55;;;;;;;9.07;100.00;101909.34;683567;28;2242;-59
2023/05/26 01:46:05;;;;;;;14.73;3.70;;;;;;;9.06;100.00;101902.38;685064;28;1414;-59
2023/05/26 01:46:41;;;;;;;11.43;4.30;;;;;;;9.02;100.00;101906.66;684572;28;6328;-59
2023/05/26 01:47:03;;;;;;;13.18;4.00;;;;;;;8.99;100.00;101901.38;687304;28;2156;-59
2023/05/26 01:47:26;;;;;;;11.20;3.17;;;;;;;8.99;100.00;101903.97;686087;28;1595;-59
2023/05/26 01:47:50;;;;;;;13.35;3.45;;;;;;;8.90;100.00;101904.63;685456;28;1445;-59
2023/05/26 01:48:11;;;;;;;15.18;3.70;;;;;;;8.93;100.00;101909.03;684238;28;1299;-59
2023/05/26 01:48:35;;;;;;;12.73;3.47;;;;;;;8.87;100.00;101899.34;680349;28;1617;-58
2023/05/26 01:48:59;;;;;;;13.93;3.58;;;;;;;8.92;100.00;101902.09;683814;28;1379;-58